createdAt,value
2019-04-29T00:06:01.690Z,8.55
2019-04-29T00:09:02.015Z,8.47
2019-04-29T00:11:33.195Z,8.44
2019-04-29T00:14:09.127Z,8.46
2019-04-29T00:18:02.553Z,8.43
2019-04-29T00:20:50.966Z,8.43
2019-04-29T00:23:21.276Z,8.45
2019-04-29T00:26:02.063Z,8.45
2019-04-29T00:29:23.282Z,8.43
2019-04-29T00:32:49.292Z,8.43
2019-04-29T00:36:48.247Z,8.45
2019-04-29T00:39:51.008Z,8.45
2019-04-29T00:42:45.902Z,8.41
2019-04-29T00:46:02.856Z,8.44
2019-04-29T00:48:32.968Z,8.41
2019-04-29T00:51:03.412Z,8.37
2019-04-29T00:53:44.667Z,8.35
2019-04-29T00:56:15.047Z,8.37
2019-04-29T00:58:45.118Z,8.35
2019-04-29T01:01:30.232Z,8.34
2019-04-29T01:04:00.432Z,8.34
2019-04-29T01:06:30.838Z,8.28
2019-04-29T01:12:31.329Z,8.26
2019-04-29T01:15:32.842Z,8.29
2019-04-29T01:18:02.947Z,8.24
2019-04-29T01:20:36.427Z,8.27
2019-04-29T01:23:19.689Z,8.25
2019-04-29T01:25:53.246Z,8.25
2019-04-29T01:28:40.048Z,8.19
2019-04-29T01:31:10.348Z,8.20
2019-04-29T01:33:40.384Z,8.21
2019-04-29T01:36:44.870Z,8.19
2019-04-29T01:39:16.370Z,8.18
2019-04-29T01:42:18.315Z,8.15
2019-04-29T01:45:03.275Z,8.14
2019-04-29T01:51:29.177Z,8.11
2019-04-29T01:53:59.671Z,8.18
2019-04-29T01:56:30.318Z,8.16
2019-04-29T01:59:00.442Z,8.11
2019-04-29T02:01:30.893Z,8.09
2019-04-29T02:04:01.239Z,8.06
2019-04-29T02:06:31.362Z,8.05
2019-04-29T02:09:01.580Z,8.02
2019-04-29T02:11:31.734Z,8.11
2019-04-29T02:14:19.406Z,8.07
2019-04-29T02:16:49.646Z,8.04
2019-04-29T02:19:21.506Z,8.04
2019-04-29T02:26:47.691Z,8.03
2019-04-29T02:29:32.632Z,8.01
2019-04-29T02:36:21.994Z,8.01
2019-04-29T02:39:24.152Z,8.02
2019-04-29T02:42:01.518Z,8.04
2019-04-29T02:44:36.510Z,7.98
2019-04-29T02:47:06.755Z,8.02
2019-04-29T02:49:36.881Z,8.01
2019-04-29T02:52:07.055Z,7.99
2019-04-29T02:54:37.199Z,7.98
2019-04-29T02:57:55.155Z,8.00
2019-04-29T03:01:03.459Z,8.02
2019-04-29T03:03:42.610Z,7.91
2019-04-29T03:06:12.971Z,7.93
2019-04-29T03:08:43.086Z,7.87
2019-04-29T03:11:14.646Z,7.89
2019-04-29T03:13:44.834Z,7.93
2019-04-29T03:16:21.585Z,7.90
2019-04-29T03:18:56.781Z,7.92
2019-04-29T03:21:46.777Z,7.91
2019-04-29T03:24:17.018Z,7.94
2019-04-29T03:26:53.154Z,7.88
2019-04-29T03:29:23.308Z,7.89
2019-04-29T03:31:54.730Z,7.91
2019-04-29T03:34:25.343Z,7.90
2019-04-29T03:36:56.092Z,7.91
2019-04-29T03:39:26.319Z,7.89
2019-04-29T03:41:56.853Z,7.87
2019-04-29T03:44:32.860Z,7.88
2019-04-29T03:46:59.946Z,7.86
2019-04-29T03:49:29.986Z,7.90
2019-04-29T03:52:00.027Z,7.84
2019-04-29T03:54:36.530Z,7.82
2019-04-29T03:57:20.919Z,7.84
2019-04-29T03:59:51.245Z,7.82
2019-04-29T04:02:30.962Z,7.82
2019-04-29T04:05:22.767Z,7.80
2019-04-29T04:08:03.801Z,7.82
2019-04-29T04:10:51.216Z,7.78
2019-04-29T04:13:24.541Z,7.81
2019-04-29T04:15:55.130Z,7.83
2019-04-29T04:18:30.735Z,7.89
2019-04-29T04:21:01.241Z,7.86
2019-04-29T04:23:31.957Z,7.89
2019-04-29T04:30:11.436Z,7.78
2019-04-29T04:32:42.291Z,7.90
2019-04-29T04:35:13.358Z,7.93
2019-04-29T04:38:29.622Z,7.93
2019-04-29T04:41:49.333Z,7.91
2019-04-29T04:44:20.030Z,7.99
2019-04-29T04:46:50.350Z,8.07
2019-04-29T04:49:20.873Z,8.04
2019-04-29T04:51:50.927Z,8.10
2019-04-29T04:54:44.813Z,8.12
2019-04-29T04:57:03.449Z,8.16
2019-04-29T04:59:37.846Z,8.15
2019-04-29T05:02:07.966Z,8.13
2019-04-29T05:04:45.247Z,8.14
2019-04-29T05:07:23.779Z,8.21
2019-04-29T05:09:56.250Z,8.26
2019-04-29T05:12:26.375Z,8.24
2019-04-29T05:15:07.227Z,8.35
2019-04-29T05:17:40.176Z,8.36
2019-04-29T05:20:14.726Z,8.46
2019-04-29T05:23:28.484Z,8.48
2019-04-29T05:25:36.379Z,8.43
2019-04-29T05:28:06.969Z,8.53
2019-04-29T05:30:37.047Z,8.57
2019-04-29T05:33:15.789Z,8.59
2019-04-29T05:36:02.117Z,8.68
2019-04-29T05:38:41.434Z,8.76
2019-04-29T05:41:15.273Z,8.80
2019-04-29T05:43:51.324Z,8.82
2019-04-29T05:46:36.142Z,8.80
2019-04-29T05:49:43.525Z,8.84
2019-04-29T05:52:34.720Z,8.84
2019-04-29T05:55:15.453Z,8.95
2019-04-29T05:57:46.800Z,9.08
2019-04-29T06:00:18.773Z,9.20
2019-04-29T06:02:54.567Z,9.26
2019-04-29T06:05:22.068Z,9.31
2019-04-29T06:07:56.129Z,9.34
2019-04-29T06:10:26.408Z,9.35
2019-04-29T06:12:57.641Z,9.33
2019-04-29T06:15:28.378Z,9.49
2019-04-29T06:17:58.460Z,9.38
2019-04-29T06:20:35.323Z,9.42
2019-04-29T06:23:11.124Z,9.50
2019-04-29T06:25:38.506Z,9.53
2019-04-29T06:28:09.048Z,9.60
2019-04-29T06:30:40.748Z,9.48
2019-04-29T06:33:24.370Z,9.44
2019-04-29T06:35:56.958Z,9.55
2019-04-29T06:38:26.809Z,9.58
2019-04-29T06:40:56.303Z,9.57
2019-04-29T06:43:28.903Z,9.54
2019-04-29T06:45:58.486Z,9.56
2019-04-29T06:48:28.527Z,9.53
2019-04-29T06:50:58.541Z,9.46
2019-04-29T06:53:28.975Z,9.39
2019-04-29T06:55:59.026Z,9.40
2019-04-29T06:58:32.629Z,9.41
2019-04-29T07:01:03.123Z,9.36
2019-04-29T07:03:33.381Z,9.46
2019-04-29T07:06:03.353Z,9.31
2019-04-29T07:08:34.087Z,9.38
2019-04-29T07:11:04.359Z,9.35
2019-04-29T07:13:34.774Z,9.30
2019-04-29T07:16:04.914Z,9.29
2019-04-29T07:18:34.946Z,9.30
2019-04-29T07:21:07.596Z,9.32
2019-04-29T07:23:37.158Z,9.40
2019-04-29T07:26:07.195Z,9.32
2019-04-29T07:28:37.622Z,9.27
2019-04-29T07:31:10.114Z,9.33
2019-04-29T07:33:39.409Z,9.33
2019-04-29T07:36:11.365Z,9.39
2019-04-29T07:38:42.074Z,9.27
2019-04-29T07:41:14.237Z,9.22
2019-04-29T07:43:45.254Z,9.22
2019-04-29T07:46:49.269Z,9.25
2019-04-29T07:49:06.500Z,9.28
2019-04-29T07:51:39.545Z,9.29
2019-04-29T07:54:11.149Z,9.19
2019-04-29T07:56:42.281Z,9.24
2019-04-29T07:59:12.391Z,9.19
2019-04-29T08:01:42.484Z,9.23
2019-04-29T08:04:12.826Z,9.26
2019-04-29T08:06:44.894Z,9.26
2019-04-29T08:09:15.497Z,9.31
2019-04-29T08:11:46.106Z,9.33
2019-04-29T08:14:17.432Z,9.33
2019-04-29T08:16:47.898Z,9.38
2019-04-29T08:19:17.967Z,9.47
2019-04-29T08:21:49.718Z,9.51
2019-04-29T08:24:19.849Z,9.44
2019-04-29T08:26:49.990Z,9.44
2019-04-29T08:29:20.082Z,9.46
2019-04-29T08:31:51.986Z,9.41
2019-04-29T08:34:23.187Z,9.55
2019-04-29T08:36:53.680Z,9.62
2019-04-29T08:39:25.013Z,9.60
2019-04-29T08:41:58.831Z,9.60
2019-04-29T08:44:47.406Z,9.62
2019-04-29T08:47:30.429Z,9.61
2019-04-29T08:49:55.483Z,9.68
2019-04-29T08:52:26.075Z,9.77
2019-04-29T08:54:57.334Z,9.77
2019-04-29T08:57:27.427Z,9.81
2019-04-29T08:59:57.508Z,9.88
2019-04-29T09:02:35.134Z,9.78
2019-04-29T09:04:59.358Z,9.85
2019-04-29T09:07:29.458Z,9.85
2019-04-29T09:10:01.845Z,9.90
2019-04-29T09:12:31.588Z,9.88
2019-04-29T09:15:01.926Z,9.94
2019-04-29T09:17:32.039Z,9.88
2019-04-29T09:20:02.075Z,9.88
2019-04-29T09:22:33.811Z,9.90
2019-04-29T09:25:30.605Z,9.92
2019-04-29T09:28:02.544Z,9.87
2019-04-29T09:30:32.584Z,9.92
2019-04-29T09:33:02.985Z,9.90
2019-04-29T09:35:33.760Z,9.92
2019-04-29T09:38:05.319Z,9.98
2019-04-29T09:40:39.546Z,9.89
2019-04-29T09:43:32.910Z,9.88
2019-04-29T09:46:12.966Z,9.92
2019-04-29T09:48:43.299Z,9.93
2019-04-29T09:51:17.644Z,10.00
2019-04-29T09:53:45.100Z,9.95
2019-04-29T09:56:15.168Z,9.93
2019-04-29T09:58:45.229Z,9.92
2019-04-29T10:01:41.108Z,9.94
2019-04-29T10:04:26.561Z,10.00
2019-04-29T10:06:58.455Z,10.11
2019-04-29T10:09:28.912Z,10.13
2019-04-29T10:11:59.688Z,10.03
2019-04-29T10:14:29.824Z,10.04
2019-04-29T10:17:20.584Z,10.03
2019-04-29T10:20:07.742Z,10.06
2019-04-29T10:22:36.623Z,10.12
2019-04-29T10:25:07.338Z,10.20
2019-04-29T10:27:38.410Z,10.12
2019-04-29T10:30:09.195Z,10.05
2019-04-29T10:32:42.535Z,10.04
2019-04-29T10:35:11.217Z,10.08
2019-04-29T10:37:41.288Z,10.06
2019-04-29T10:40:31.580Z,10.12
2019-04-29T10:43:17.260Z,10.13
2019-04-29T10:46:03.769Z,10.15
2019-04-29T10:48:45.087Z,10.12
2019-04-29T10:51:16.190Z,10.15
2019-04-29T10:53:46.615Z,10.13
2019-04-29T10:56:18.823Z,10.25
2019-04-29T10:58:48.885Z,10.26
2019-04-29T11:02:26.363Z,10.21
2019-04-29T11:05:02.683Z,10.28
2019-04-29T11:07:36.975Z,10.15
2019-04-29T11:10:24.815Z,10.18
2019-04-29T11:12:46.292Z,10.23
2019-04-29T11:15:17.475Z,10.22
2019-04-29T11:17:47.615Z,10.22
2019-04-29T11:20:21.248Z,10.19
2019-04-29T11:22:59.021Z,10.19
2019-04-29T11:25:51.656Z,10.17
2019-04-29T11:28:34.248Z,10.22
2019-04-29T11:31:04.490Z,10.18
2019-04-29T11:33:41.689Z,10.09
2019-04-29T11:36:13.911Z,10.08
2019-04-29T11:38:44.222Z,10.10
2019-04-29T11:41:20.069Z,10.20
2019-04-29T11:43:50.493Z,10.19
2019-04-29T11:46:20.989Z,10.17
2019-04-29T11:48:52.758Z,10.28
2019-04-29T11:51:48.535Z,10.18
2019-04-29T11:54:12.392Z,10.19
2019-04-29T11:56:41.834Z,10.29
2019-04-29T11:59:20.079Z,10.27
2019-04-29T12:02:01.875Z,10.25
2019-04-29T12:04:42.305Z,10.27
2019-04-29T12:07:12.987Z,10.29
2019-04-29T12:09:43.716Z,10.34
2019-04-29T12:12:14.974Z,10.28
2019-04-29T12:15:00.869Z,10.24
2019-04-29T12:18:02.396Z,10.27
2019-04-29T12:20:41.335Z,10.29
2019-04-29T12:23:15.720Z,10.33
2019-04-29T12:25:43.593Z,10.30
2019-04-29T12:28:18.902Z,10.40
2019-04-29T12:30:44.143Z,10.50
2019-04-29T12:33:17.535Z,10.47
2019-04-29T12:36:16.409Z,10.52
2019-04-29T12:39:04.864Z,10.58
2019-04-29T12:41:51.677Z,10.66
2019-04-29T12:44:35.460Z,10.65
2019-04-29T12:47:05.865Z,10.70
2019-04-29T12:49:33.825Z,10.71
2019-04-29T12:52:02.036Z,10.80
2019-04-29T12:54:30.297Z,10.80
2019-04-29T12:56:58.256Z,10.85
2019-04-29T12:59:26.209Z,10.78
2019-04-29T13:02:19.887Z,10.78
2019-04-29T13:05:04.549Z,10.87
2019-04-29T13:08:01.409Z,10.86
2019-04-29T13:10:44.269Z,10.83
2019-04-29T13:13:15.651Z,10.84
2019-04-29T13:16:10.652Z,10.89
2019-04-29T13:19:12.246Z,10.92
2019-04-29T13:21:39.337Z,10.94
2019-04-29T13:24:21.682Z,10.93
2019-04-29T13:26:42.241Z,10.96
2019-04-29T13:29:09.487Z,11.03
2019-04-29T13:31:39.012Z,11.13
2019-04-29T13:34:23.809Z,11.06
2019-04-29T13:36:39.144Z,11.15
2019-04-29T13:39:08.049Z,11.21
2019-04-29T13:41:55.586Z,11.26
2019-04-29T13:44:07.517Z,11.32
2019-04-29T13:46:58.338Z,11.39
2019-04-29T13:49:49.105Z,11.47
2019-04-29T13:52:15.632Z,11.54
2019-04-29T13:54:44.286Z,11.61
2019-04-29T13:57:16.202Z,11.68
2019-04-29T14:00:13.847Z,11.66
2019-04-29T14:02:58.924Z,11.78
2019-04-29T14:05:17.662Z,11.81
2019-04-29T14:07:48.644Z,11.92
2019-04-29T14:10:17.066Z,12.01
2019-04-29T14:12:51.132Z,12.14
2019-04-29T14:15:15.846Z,12.22
2019-04-29T14:17:44.206Z,12.33
2019-04-29T14:20:21.775Z,12.43
2019-04-29T14:22:52.036Z,12.45
2019-04-29T14:25:19.083Z,12.62
2019-04-29T14:27:46.990Z,12.63
2019-04-29T14:30:16.993Z,12.76
2019-04-29T14:32:49.805Z,12.91
2019-04-29T14:35:49.975Z,12.98
2019-04-29T14:38:18.720Z,12.93
2019-04-29T14:41:02.819Z,13.22
2019-04-29T14:43:40.981Z,13.23
2019-04-29T14:46:24.699Z,13.38
2019-04-29T14:48:59.505Z,13.47
2019-04-29T14:51:28.456Z,13.56
2019-04-29T14:54:01.298Z,13.73
2019-04-29T14:56:27.584Z,13.71
2019-04-29T14:59:06.532Z,13.94
2019-04-29T15:01:33.613Z,14.16
2019-04-29T15:04:18.041Z,14.16
2019-04-29T15:06:38.422Z,14.25
2019-04-29T15:09:16.970Z,14.40
2019-04-29T15:11:51.758Z,14.42
2019-04-29T15:14:35.145Z,14.60
2019-04-29T15:17:14.361Z,14.73
2019-04-29T15:20:11.890Z,14.84
2019-04-29T15:22:41.369Z,14.80
2019-04-29T15:25:11.010Z,14.88
2019-04-29T15:27:39.347Z,14.96
2019-04-29T15:30:08.739Z,15.05
2019-04-29T15:32:40.263Z,15.09
2019-04-29T15:35:09.700Z,15.36
2019-04-29T15:37:40.069Z,15.36
2019-04-29T15:40:09.831Z,15.46
2019-04-29T15:42:42.294Z,15.48
2019-04-29T15:45:18.229Z,15.61
2019-04-29T15:47:48.689Z,15.56
2019-04-29T15:50:19.095Z,15.62
2019-04-29T15:52:51.244Z,15.71
2019-04-29T15:55:19.859Z,15.54
2019-04-29T15:57:50.277Z,15.66
2019-04-29T16:00:23.027Z,15.69
2019-04-29T16:02:50.270Z,15.79
2019-04-29T16:05:34.670Z,15.77
2019-04-29T16:08:32.698Z,15.85
2019-04-29T16:11:21.140Z,15.79
2019-04-29T16:14:08.295Z,15.66
2019-04-29T16:16:23.069Z,15.67
2019-04-29T16:18:53.451Z,15.52
2019-04-29T16:21:24.066Z,15.69
2019-04-29T16:23:57.521Z,15.60
2019-04-29T16:26:30.182Z,15.70
2019-04-29T16:29:12.489Z,15.70
2019-04-29T16:31:33.636Z,15.80
2019-04-29T16:34:02.453Z,15.85
2019-04-29T16:36:33.261Z,16.04
2019-04-29T16:39:02.564Z,15.89
2019-04-29T16:42:01.508Z,16.09
2019-04-29T16:44:36.052Z,16.13
2019-04-29T16:49:43.196Z,16.18
2019-04-29T16:52:12.598Z,16.29
2019-04-29T16:54:41.492Z,16.28
2019-04-29T16:57:10.728Z,16.29
2019-04-29T16:59:39.717Z,16.31
2019-04-29T17:02:10.198Z,16.29
2019-04-29T17:04:43.077Z,16.20
2019-04-29T17:07:14.035Z,16.11
2019-04-29T17:10:01.540Z,15.96
2019-04-29T17:12:37.902Z,15.81
2019-04-29T17:15:23.009Z,15.80
2019-04-29T17:17:37.671Z,15.80
2019-04-29T17:20:07.014Z,15.64
2019-04-29T17:22:42.767Z,15.64
2019-04-29T17:25:08.347Z,15.60
2019-04-29T17:27:59.717Z,15.49
2019-04-29T17:30:46.299Z,15.25
2019-04-29T17:33:27.545Z,15.31
2019-04-29T17:35:14.348Z,16.09
2019-04-29T17:35:50.791Z,15.00
2019-04-29T17:38:20.113Z,14.95
2019-04-29T17:40:51.120Z,14.91
2019-04-29T17:43:43.067Z,14.78
2019-04-29T17:46:38.085Z,14.56
2019-04-29T17:49:13.781Z,14.48
2019-04-29T17:51:43.140Z,14.47
2019-04-29T17:54:15.808Z,14.37
2019-04-29T17:57:28.699Z,14.37
2019-04-29T18:00:11.058Z,14.19
2019-04-29T18:03:00.876Z,14.08
2019-04-29T18:05:54.843Z,14.03
2019-04-29T18:08:23.470Z,13.91
2019-04-29T18:10:55.607Z,13.76
2019-04-29T18:13:26.495Z,13.58
2019-04-29T18:16:01.584Z,13.44
2019-04-29T18:18:45.432Z,13.51
2019-04-29T18:21:21.698Z,13.49
2019-04-29T18:24:08.404Z,13.31
2019-04-29T18:26:44.226Z,13.19
2019-04-29T18:29:16.760Z,13.14
2019-04-29T18:31:46.597Z,13.02
2019-04-29T18:34:15.706Z,12.87
2019-04-29T18:36:45.838Z,12.82
2019-04-29T18:39:20.158Z,12.76
2019-04-29T18:42:09.132Z,12.76
2019-04-29T18:49:37.169Z,12.43
2019-04-29T18:52:07.763Z,12.31
2019-04-29T18:54:57.291Z,12.31
2019-04-29T18:57:30.508Z,12.22
2019-04-29T19:04:16.138Z,12.00
2019-04-29T19:06:41.689Z,11.87
2019-04-29T19:09:18.022Z,11.84
2019-04-29T19:11:41.556Z,11.71
2019-04-29T19:14:38.315Z,11.68
2019-04-29T19:17:10.983Z,11.47
2019-04-29T19:19:39.787Z,11.50
2019-04-29T19:22:09.504Z,11.37
2019-04-29T19:24:38.514Z,11.30
2019-04-29T19:27:15.853Z,11.25
2019-04-29T19:29:58.425Z,11.27
2019-04-29T19:32:34.805Z,11.14
2019-04-29T19:35:04.373Z,11.04
2019-04-29T19:41:23.834Z,10.88
2019-04-29T19:43:55.102Z,10.74
2019-04-29T19:47:15.185Z,10.77
2019-04-29T19:49:44.720Z,10.64
2019-04-29T19:52:19.061Z,10.53
2019-04-29T19:54:45.258Z,10.53
2019-04-29T19:57:14.938Z,10.51
2019-04-29T20:03:57.372Z,10.38
2019-04-29T20:06:30.053Z,10.27
2019-04-29T20:09:01.399Z,10.22
2019-04-29T20:11:32.691Z,10.15
2019-04-29T20:14:04.794Z,10.08
2019-04-29T20:17:09.552Z,10.03
2019-04-29T20:19:45.905Z,10.00
2019-04-29T20:22:16.142Z,9.92
2019-04-29T20:24:49.657Z,9.89
2019-04-29T20:27:16.718Z,9.87
2019-04-29T20:29:45.831Z,9.75
2019-04-29T20:32:16.328Z,9.68
2019-04-29T20:34:45.827Z,9.67
2019-04-29T20:37:36.737Z,9.62
2019-04-29T20:40:50.789Z,9.61
2019-04-29T20:43:35.873Z,9.55
2019-04-29T20:46:04.663Z,9.42
2019-04-29T20:48:32.829Z,9.40
2019-04-29T20:51:10.620Z,9.34
2019-04-29T20:53:46.141Z,9.26
2019-04-29T20:56:23.972Z,9.28
2019-04-29T20:58:46.700Z,9.19
2019-04-29T21:01:29.201Z,9.20
2019-04-29T21:03:57.454Z,9.12
2019-04-29T21:06:25.537Z,9.09
2019-04-29T21:08:55.106Z,9.06
2019-04-29T21:11:39.133Z,8.99
2019-04-29T21:15:01.239Z,8.92
2019-04-29T21:17:31.976Z,8.89
2019-04-29T21:19:59.971Z,8.86
2019-04-29T21:22:35.657Z,8.80
2019-04-29T21:25:04.118Z,8.83
2019-04-29T21:27:43.059Z,8.70
2019-04-29T21:30:14.302Z,8.64
2019-04-29T21:32:42.770Z,8.56
2019-04-29T21:35:25.003Z,8.52
2019-04-29T21:38:26.036Z,8.47
2019-04-29T21:41:05.150Z,8.36
2019-04-29T21:43:35.483Z,8.21
2019-04-29T21:46:05.740Z,8.02
2019-04-29T21:48:37.433Z,8.01
2019-04-29T21:51:06.761Z,7.96
2019-04-29T21:54:22.420Z,7.89
2019-04-29T21:57:46.041Z,7.76
2019-04-29T22:00:19.688Z,7.65
2019-04-29T22:03:09.860Z,7.55
2019-04-29T22:05:49.286Z,7.50
2019-04-29T22:08:20.708Z,7.50
2019-04-29T22:11:36.133Z,7.36
2019-04-29T22:14:09.870Z,7.34
2019-04-29T22:17:07.460Z,7.27
2019-04-29T22:19:36.981Z,7.21
2019-04-29T22:22:06.774Z,7.12
2019-04-29T22:24:39.448Z,7.04
2019-04-29T22:27:08.346Z,6.98
2019-04-29T22:29:38.959Z,6.87
2019-04-29T22:32:14.422Z,6.83
2019-04-29T22:35:10.963Z,6.85
2019-04-29T22:37:34.669Z,6.72
2019-04-29T22:40:07.208Z,6.67
2019-04-29T22:42:43.452Z,6.65
2019-04-29T22:45:21.381Z,6.68
2019-04-29T22:48:14.269Z,6.69
2019-04-29T22:50:38.077Z,6.69
2019-04-29T22:53:07.305Z,6.46
2019-04-29T22:55:50.210Z,6.47
2019-04-29T22:58:21.609Z,6.49
2019-04-29T23:00:52.294Z,6.49
2019-04-29T23:03:20.265Z,6.38
2019-04-29T23:05:52.824Z,6.36
2019-04-29T23:08:53.850Z,6.33
2019-04-29T23:11:21.799Z,6.30
2019-04-29T23:14:49.186Z,6.21
2019-04-29T23:17:17.125Z,6.24
2019-04-29T23:20:42.944Z,6.12
2019-04-29T23:26:27.402Z,5.92
2019-04-29T23:28:59.397Z,5.90
2019-04-29T23:31:27.233Z,5.79
2019-04-29T23:33:56.484Z,5.71
2019-04-29T23:36:27.470Z,5.74
2019-04-29T23:39:41.044Z,5.66
2019-04-29T23:42:12.306Z,5.58
2019-04-29T23:44:42.393Z,5.60
2019-04-29T23:47:10.438Z,5.64
2019-04-29T23:49:47.055Z,5.56
2019-04-29T23:52:31.770Z,5.54
2019-04-29T23:54:55.981Z,5.39
2019-04-29T23:57:36.989Z,5.45
